createdAt,value
2023-02-19T00:00:58.649Z,10.56
2023-02-19T00:03:25.954Z,10.62
2023-02-19T00:05:53.321Z,10.68
2023-02-19T00:08:20.614Z,10.63
2023-02-19T00:10:47.943Z,10.59
2023-02-19T00:13:15.239Z,10.60
2023-02-19T00:15:42.555Z,10.60
2023-02-19T00:18:11.216Z,10.63
2023-02-19T00:20:38.477Z,10.62
2023-02-19T00:23:05.769Z,10.64
2023-02-19T00:25:33.074Z,10.68
2023-02-19T00:28:00.347Z,10.68
2023-02-19T00:30:27.727Z,10.75
2023-02-19T00:32:55.403Z,10.68
2023-02-19T00:35:24.057Z,10.55
2023-02-19T00:37:51.361Z,10.58
2023-02-19T00:40:18.701Z,10.71
2023-02-19T00:42:46.025Z,10.61
2023-02-19T00:45:13.308Z,10.60
2023-02-19T00:47:40.618Z,10.63
2023-02-19T00:50:07.986Z,10.62
2023-02-19T00:52:37.052Z,10.59
2023-02-19T00:55:04.536Z,10.56
2023-02-19T00:57:31.819Z,10.49
2023-02-19T00:59:59.124Z,10.48
2023-02-19T01:02:26.817Z,10.43
2023-02-19T01:04:54.173Z,10.51
2023-02-19T01:07:21.510Z,10.59
2023-02-19T01:09:50.152Z,10.47
2023-02-19T01:12:17.435Z,10.47
2023-02-19T01:14:44.870Z,10.55
2023-02-19T01:17:12.174Z,10.45
2023-02-19T01:19:39.503Z,10.50
2023-02-19T01:22:06.771Z,10.36
2023-02-19T01:24:34.060Z,10.49
2023-02-19T01:27:02.707Z,10.53
2023-02-19T01:29:30.026Z,10.42
2023-02-19T01:31:57.780Z,10.41
2023-02-19T01:34:26.928Z,10.47
2023-02-19T01:36:54.228Z,10.44
2023-02-19T01:39:21.553Z,10.28
2023-02-19T01:41:48.849Z,10.45
2023-02-19T01:44:34.815Z,10.44
2023-02-19T01:47:03.390Z,10.44
2023-02-19T01:49:32.634Z,10.36
2023-02-19T01:52:01.412Z,10.24
2023-02-19T01:54:29.922Z,10.18
2023-02-19T01:56:58.346Z,10.21
2023-02-19T01:59:25.800Z,10.04
2023-02-19T02:01:53.322Z,10.03
2023-02-19T02:04:21.985Z,9.98
2023-02-19T02:06:51.086Z,10.10
2023-02-19T02:09:36.804Z,10.09
2023-02-19T02:12:04.473Z,9.98
2023-02-19T02:14:33.461Z,10.07
2023-02-19T02:17:06.985Z,9.79
2023-02-19T02:19:47.142Z,9.91
2023-02-19T02:22:19.260Z,9.98
2023-02-19T02:25:14.431Z,9.87
2023-02-19T02:27:50.067Z,9.77
2023-02-19T02:30:26.966Z,9.71
2023-02-19T02:32:57.506Z,9.73
2023-02-19T02:35:26.607Z,9.75
2023-02-19T02:37:56.453Z,9.79
2023-02-19T02:40:24.352Z,9.49
2023-02-19T02:42:51.646Z,9.56
2023-02-19T02:45:37.938Z,9.60
2023-02-19T02:48:09.775Z,9.53
2023-02-19T02:50:39.370Z,9.55
2023-02-19T02:53:27.405Z,9.61
2023-02-19T02:55:55.625Z,9.68
2023-02-19T02:58:24.298Z,9.66
2023-02-19T03:01:14.102Z,9.59
2023-02-19T03:03:43.496Z,9.64
2023-02-19T03:06:13.045Z,9.59
2023-02-19T03:08:42.876Z,9.51
2023-02-19T03:11:28.868Z,9.48
2023-02-19T03:14:17.781Z,9.59
2023-02-19T03:17:04.829Z,9.60
2023-02-19T03:19:36.226Z,9.45
2023-02-19T03:22:10.780Z,9.53
2023-02-19T03:24:59.878Z,9.66
2023-02-19T03:27:28.535Z,9.55
2023-02-19T03:29:58.234Z,9.46
2023-02-19T03:32:30.770Z,9.46
2023-02-19T03:35:01.033Z,9.45
2023-02-19T03:37:30.343Z,9.49
2023-02-19T03:39:58.069Z,9.48
2023-02-19T03:42:30.999Z,9.60
2023-02-19T03:45:13.175Z,9.50
2023-02-19T03:47:49.787Z,9.59
2023-02-19T03:50:19.437Z,9.56
2023-02-19T03:52:53.344Z,9.48
2023-02-19T03:55:25.802Z,9.57
2023-02-19T03:57:55.234Z,9.54
2023-02-19T04:00:25.815Z,9.52
2023-02-19T04:02:57.463Z,9.45
2023-02-19T04:05:26.842Z,9.45
2023-02-19T04:07:56.043Z,9.41
2023-02-19T04:10:24.190Z,9.48
2023-02-19T04:12:54.085Z,9.47
2023-02-19T04:15:23.748Z,9.52
2023-02-19T04:17:54.352Z,9.44
2023-02-19T04:20:23.567Z,9.49
2023-02-19T04:22:50.935Z,9.49
2023-02-19T04:25:18.397Z,9.31
2023-02-19T04:27:46.689Z,9.33
2023-02-19T04:30:14.783Z,9.37
2023-02-19T04:32:42.068Z,9.42
2023-02-19T04:35:09.724Z,9.44
2023-02-19T04:37:38.360Z,9.43
2023-02-19T04:40:06.310Z,9.32
2023-02-19T04:42:33.562Z,9.49
2023-02-19T04:45:00.857Z,9.40
2023-02-19T04:47:28.124Z,9.41
2023-02-19T04:49:55.388Z,9.52
2023-02-19T04:52:22.752Z,9.32
2023-02-19T04:54:51.453Z,9.33
2023-02-19T04:57:18.736Z,9.36
2023-02-19T04:59:47.022Z,9.36
2023-02-19T05:02:14.337Z,9.30
2023-02-19T05:04:42.028Z,9.39
2023-02-19T05:07:09.641Z,9.34
2023-02-19T05:09:36.931Z,9.45
2023-02-19T05:12:05.692Z,9.31
2023-02-19T05:14:32.961Z,9.29
2023-02-19T05:17:00.255Z,9.24
2023-02-19T05:19:27.604Z,9.11
2023-02-19T05:21:54.916Z,9.10
2023-02-19T05:24:24.288Z,9.22
2023-02-19T05:26:51.586Z,9.13
2023-02-19T05:29:20.233Z,9.21
2023-02-19T05:31:48.726Z,9.25
2023-02-19T05:34:16.063Z,9.23
2023-02-19T05:36:43.350Z,9.24
2023-02-19T05:39:12.312Z,9.28
2023-02-19T05:41:39.955Z,9.07
2023-02-19T05:44:07.224Z,9.14
2023-02-19T05:46:35.912Z,9.15
2023-02-19T05:49:03.298Z,9.15
2023-02-19T05:51:30.999Z,9.11
2023-02-19T05:53:58.426Z,9.15
2023-02-19T05:56:30.826Z,9.16
2023-02-19T05:58:58.321Z,9.17
2023-02-19T06:01:27.971Z,9.07
2023-02-19T06:03:57.727Z,9.07
2023-02-19T06:06:25.544Z,9.03
2023-02-19T06:08:52.842Z,9.06
2023-02-19T06:11:20.627Z,9.02
2023-02-19T06:13:49.307Z,9.04
2023-02-19T06:16:17.563Z,9.15
2023-02-19T06:18:44.929Z,9.07
2023-02-19T06:21:13.990Z,9.08
2023-02-19T06:23:41.641Z,9.18
2023-02-19T06:26:10.124Z,9.18
2023-02-19T06:28:37.718Z,9.22
2023-02-19T06:31:05.157Z,9.29
2023-02-19T06:33:32.840Z,9.31
2023-02-19T06:36:00.788Z,9.24
2023-02-19T06:38:29.787Z,9.22
2023-02-19T06:41:00.736Z,9.27
2023-02-19T06:43:28.082Z,9.33
2023-02-19T06:45:55.407Z,9.37
2023-02-19T06:48:22.682Z,9.40
2023-02-19T06:50:49.973Z,9.28
2023-02-19T06:53:17.262Z,9.33
2023-02-19T06:55:45.898Z,9.23
2023-02-19T06:58:13.212Z,9.32
2023-02-19T07:00:40.827Z,9.41
2023-02-19T07:03:08.105Z,9.31
2023-02-19T07:05:35.382Z,9.27
2023-02-19T07:08:02.656Z,9.37
2023-02-19T07:10:30.035Z,9.38
2023-02-19T07:12:58.677Z,9.39
2023-02-19T07:15:25.965Z,9.36
2023-02-19T07:17:53.225Z,9.40
2023-02-19T07:20:20.521Z,9.29
2023-02-19T07:22:47.772Z,9.40
2023-02-19T07:25:15.115Z,9.37
2023-02-19T07:27:42.386Z,9.33
2023-02-19T07:30:11.795Z,9.37
2023-02-19T07:32:41.564Z,9.29
2023-02-19T07:35:09.111Z,9.29
2023-02-19T07:37:36.734Z,9.27
2023-02-19T07:40:04.258Z,8.92
2023-02-19T07:42:31.580Z,8.78
2023-02-19T07:45:00.596Z,8.74
2023-02-19T07:47:29.586Z,8.64
2023-02-19T07:49:56.902Z,8.40
2023-02-19T07:52:24.300Z,8.38
2023-02-19T07:54:51.655Z,8.39
2023-02-19T07:57:18.939Z,8.49
2023-02-19T07:59:46.231Z,8.32
2023-02-19T08:02:34.332Z,8.23
2023-02-19T08:05:03.465Z,8.31
2023-02-19T08:07:33.712Z,8.33
2023-02-19T08:10:15.003Z,8.35
2023-02-19T08:13:00.245Z,8.44
2023-02-19T08:15:27.515Z,8.05
2023-02-19T08:17:54.806Z,8.15
2023-02-19T08:20:23.424Z,8.03
2023-02-19T08:22:51.012Z,8.02
2023-02-19T08:25:18.398Z,7.95
2023-02-19T08:27:45.902Z,7.84
2023-02-19T08:30:13.544Z,7.59
2023-02-19T08:32:40.834Z,7.26
2023-02-19T08:35:08.347Z,7.17
2023-02-19T08:37:36.945Z,7.04
2023-02-19T08:40:04.470Z,7.09
2023-02-19T08:42:31.818Z,6.94
2023-02-19T08:44:59.082Z,7.00
2023-02-19T08:47:26.439Z,6.97
2023-02-19T08:49:53.741Z,6.82
2023-02-19T08:52:21.043Z,6.62
2023-02-19T08:54:49.628Z,6.46
2023-02-19T08:57:17.154Z,6.32
2023-02-19T08:59:44.460Z,6.37
2023-02-19T09:02:12.774Z,6.28
2023-02-19T09:04:40.259Z,6.32
2023-02-19T09:07:10.859Z,5.86
2023-02-19T09:09:38.255Z,5.96
2023-02-19T09:12:07.538Z,5.97
2023-02-19T09:14:35.347Z,6.00
2023-02-19T09:17:03.390Z,6.04
2023-02-19T09:19:31.043Z,5.96
2023-02-19T09:21:58.315Z,5.84
2023-02-19T09:24:25.958Z,5.81
2023-02-19T09:26:54.092Z,5.57
2023-02-19T09:29:23.251Z,5.69
2023-02-19T09:31:50.854Z,5.58
2023-02-19T09:34:18.248Z,5.67
2023-02-19T09:36:45.528Z,5.84
2023-02-19T09:39:13.095Z,5.75
2023-02-19T09:41:46.399Z,5.55
2023-02-19T09:44:15.362Z,5.23
2023-02-19T09:46:46.075Z,5.25
2023-02-19T09:49:15.446Z,5.22
2023-02-19T09:51:45.006Z,4.95
2023-02-19T09:54:15.863Z,5.06
2023-02-19T09:56:43.222Z,5.23
2023-02-19T09:59:16.692Z,5.52
2023-02-19T10:01:45.985Z,5.76
2023-02-19T10:04:13.254Z,5.84
2023-02-19T10:06:40.501Z,6.01
2023-02-19T10:09:14.671Z,6.10
2023-02-19T10:11:42.673Z,6.23
2023-02-19T10:15:32.593Z,6.40
2023-02-19T10:18:01.358Z,6.62
2023-02-19T10:20:28.949Z,6.66
2023-02-19T10:23:02.153Z,6.58
2023-02-19T10:25:30.964Z,6.29
2023-02-19T10:27:59.660Z,6.26
2023-02-19T10:30:31.044Z,6.20
2023-02-19T10:33:05.368Z,6.10
2023-02-19T10:35:37.020Z,6.63
2023-02-19T10:38:08.247Z,6.95
2023-02-19T10:40:35.650Z,6.89
2023-02-19T10:43:05.686Z,7.14
2023-02-19T10:45:40.542Z,7.17
2023-02-19T10:48:24.671Z,7.13
2023-02-19T10:50:57.116Z,6.95
2023-02-19T10:53:36.531Z,6.89
2023-02-19T10:56:08.753Z,6.94
2023-02-19T10:58:37.797Z,7.09
2023-02-19T11:01:15.526Z,7.35
2023-02-19T11:03:43.368Z,7.22
2023-02-19T11:06:14.167Z,7.17
2023-02-19T11:08:49.746Z,7.19
2023-02-19T11:11:26.889Z,7.28
2023-02-19T11:13:56.030Z,7.34
2023-02-19T11:16:25.542Z,7.45
2023-02-19T11:18:57.466Z,7.13
2023-02-19T11:21:28.569Z,7.50
2023-02-19T11:23:56.515Z,7.57
2023-02-19T11:26:26.219Z,7.41
2023-02-19T11:28:57.819Z,7.17
2023-02-19T11:31:28.830Z,7.30
2023-02-19T11:33:58.319Z,7.34
2023-02-19T11:36:30.393Z,7.00
2023-02-19T11:38:59.804Z,6.82
2023-02-19T11:41:48.480Z,6.86
2023-02-19T11:44:31.018Z,7.04
2023-02-19T11:47:19.143Z,7.26
2023-02-19T11:49:55.376Z,7.25
2023-02-19T11:52:35.156Z,7.48
2023-02-19T11:55:14.784Z,7.21
2023-02-19T11:57:45.118Z,7.30
2023-02-19T12:00:30.884Z,7.00
2023-02-19T12:03:23.128Z,7.06
2023-02-19T12:06:13.428Z,6.92
2023-02-19T12:09:01.884Z,7.01
2023-02-19T12:11:53.508Z,7.32
2023-02-19T12:14:48.681Z,7.22
2023-02-19T12:17:25.919Z,7.38
2023-02-19T12:20:07.839Z,7.35
2023-02-19T12:22:45.676Z,7.34
2023-02-19T12:25:38.636Z,7.36
2023-02-19T12:28:20.768Z,7.58
2023-02-19T12:31:03.268Z,7.72
2023-02-19T12:33:54.499Z,7.80
2023-02-19T12:36:32.456Z,7.77
2023-02-19T12:39:07.513Z,7.64
2023-02-19T12:41:45.279Z,7.84
2023-02-19T12:44:18.012Z,7.91
2023-02-19T12:46:50.388Z,7.98
2023-02-19T12:49:25.448Z,7.88
2023-02-19T12:51:59.267Z,7.91
2023-02-19T12:54:29.110Z,7.97
2023-02-19T12:57:02.501Z,7.79
2023-02-19T12:59:34.412Z,7.72
2023-02-19T13:02:06.966Z,7.70
2023-02-19T13:04:43.349Z,7.44
2023-02-19T13:07:15.885Z,7.60
2023-02-19T13:09:49.814Z,7.41
2023-02-19T13:12:22.968Z,7.61
2023-02-19T13:14:57.734Z,7.79
2023-02-19T13:17:30.264Z,8.01
2023-02-19T13:20:01.264Z,7.68
2023-02-19T13:22:55.896Z,7.86
2023-02-19T13:28:33.331Z,8.19
2023-02-19T13:31:17.186Z,8.47
2023-02-19T13:33:55.085Z,8.24
2023-02-19T13:36:27.058Z,8.33
2023-02-19T13:38:58.043Z,8.39
2023-02-19T13:41:30.767Z,8.51
2023-02-19T13:44:02.656Z,8.34
2023-02-19T13:46:39.867Z,8.32
2023-02-19T13:49:43.191Z,8.00
2023-02-19T13:52:38.005Z,8.07
2023-02-19T13:55:46.661Z,8.16
2023-02-19T13:58:40.600Z,8.18
2023-02-19T14:01:10.883Z,8.07
2023-02-19T14:03:48.286Z,8.13
2023-02-19T14:06:15.807Z,8.15
2023-02-19T14:08:55.989Z,8.08
2023-02-19T14:11:56.598Z,8.34
2023-02-19T14:14:35.125Z,8.64
2023-02-19T14:17:08.360Z,8.56
2023-02-19T14:19:51.545Z,8.57
2023-02-19T14:23:10.676Z,8.50
2023-02-19T14:25:45.237Z,8.47
2023-02-19T14:28:22.407Z,8.37
2023-02-19T14:30:53.514Z,8.24
2023-02-19T14:33:24.386Z,8.36
2023-02-19T14:35:55.699Z,8.26
2023-02-19T14:38:26.958Z,8.06
2023-02-19T14:40:56.276Z,7.89
2023-02-19T14:43:26.078Z,7.96
2023-02-19T14:45:59.417Z,7.88
2023-02-19T14:48:31.887Z,7.95
2023-02-19T14:51:04.288Z,8.01
2023-02-19T14:53:38.240Z,7.59
2023-02-19T14:56:08.636Z,7.60
2023-02-19T14:58:36.898Z,7.63
2023-02-19T15:01:09.478Z,7.86
2023-02-19T15:03:38.475Z,8.00
2023-02-19T15:06:09.399Z,7.95
2023-02-19T15:08:44.611Z,7.85
2023-02-19T15:11:16.238Z,7.45
2023-02-19T15:13:45.768Z,7.48
2023-02-19T15:16:21.430Z,7.32
2023-02-19T15:18:51.623Z,7.33
2023-02-19T15:21:25.332Z,7.25
2023-02-19T15:23:55.806Z,7.18
2023-02-19T15:26:28.068Z,7.14
2023-02-19T15:29:00.597Z,7.05
2023-02-19T15:31:29.786Z,7.00
2023-02-19T15:33:57.334Z,7.03
2023-02-19T15:36:31.695Z,7.05
2023-02-19T15:39:02.167Z,6.96
2023-02-19T15:41:34.331Z,6.98
2023-02-19T15:44:22.364Z,7.02
2023-02-19T15:46:51.601Z,7.11
2023-02-19T15:49:24.645Z,6.95
2023-02-19T15:51:57.701Z,6.97
2023-02-19T15:54:31.216Z,7.02
2023-02-19T15:57:04.713Z,6.94
2023-02-19T15:59:38.895Z,6.97
2023-02-19T16:02:13.079Z,6.83
2023-02-19T16:04:41.550Z,6.71
2023-02-19T16:07:25.069Z,6.55
2023-02-19T16:10:07.874Z,6.63
2023-02-19T16:12:35.361Z,6.56
2023-02-19T16:15:13.319Z,6.61
2023-02-19T16:17:44.636Z,6.50
2023-02-19T16:20:20.715Z,6.47
2023-02-19T16:22:48.448Z,6.39
2023-02-19T16:25:29.441Z,6.37
2023-02-19T16:27:57.092Z,6.29
2023-02-19T16:30:29.643Z,6.13
2023-02-19T16:33:32.864Z,6.08
2023-02-19T16:36:17.187Z,6.09
2023-02-19T16:38:59.964Z,6.11
2023-02-19T16:41:27.442Z,6.00
2023-02-19T16:43:54.883Z,5.98
2023-02-19T16:46:22.277Z,6.00
2023-02-19T16:48:51.973Z,6.04
2023-02-19T16:51:31.310Z,6.06
2023-02-19T16:53:58.679Z,5.91
2023-02-19T16:56:26.086Z,5.96
2023-02-19T16:58:53.542Z,5.97
2023-02-19T17:01:21.302Z,5.85
2023-02-19T17:03:49.142Z,5.84
2023-02-19T17:06:18.319Z,5.74
2023-02-19T17:08:46.013Z,5.75
2023-02-19T17:11:15.382Z,5.85
2023-02-19T17:13:43.293Z,5.68
2023-02-19T17:16:18.181Z,5.63
2023-02-19T17:18:45.592Z,5.67
2023-02-19T17:21:16.646Z,5.58
2023-02-19T17:23:45.346Z,5.46
2023-02-19T17:26:14.920Z,5.60
2023-02-19T17:28:42.456Z,5.40
2023-02-19T17:31:10.400Z,5.58
2023-02-19T17:33:38.141Z,5.37
2023-02-19T17:36:06.720Z,5.35
2023-02-19T17:38:34.309Z,5.31
2023-02-19T17:41:03.236Z,5.37
2023-02-19T17:43:30.723Z,5.37
2023-02-19T17:45:58.182Z,5.35
2023-02-19T17:48:25.597Z,5.27
2023-02-19T17:50:53.109Z,5.19
2023-02-19T17:53:20.614Z,5.39
2023-02-19T17:55:48.021Z,5.48
2023-02-19T17:58:16.750Z,5.28
2023-02-19T18:00:44.143Z,5.10
2023-02-19T18:03:11.547Z,5.18
2023-02-19T18:05:38.987Z,5.17
2023-02-19T18:08:06.437Z,5.37
2023-02-19T18:10:33.833Z,5.25
2023-02-19T18:13:01.376Z,5.25
2023-02-19T18:15:30.180Z,5.19
2023-02-19T18:17:58.131Z,5.21
2023-02-19T18:20:28.372Z,5.23
2023-02-19T18:22:57.197Z,5.28
2023-02-19T18:25:25.331Z,5.23
2023-02-19T18:27:53.007Z,5.16
2023-02-19T18:30:22.970Z,5.06
2023-02-19T18:32:52.222Z,5.09
2023-02-19T18:35:21.260Z,5.19
2023-02-19T18:37:51.137Z,5.08
2023-02-19T18:40:19.597Z,4.96
2023-02-19T18:42:47.059Z,4.82
2023-02-19T18:45:14.490Z,4.89
2023-02-19T18:47:42.185Z,4.77
2023-02-19T18:50:11.846Z,4.87
2023-02-19T18:52:39.288Z,4.67
2023-02-19T18:55:07.720Z,4.59
2023-02-19T18:57:35.100Z,4.73
2023-02-19T19:00:02.535Z,4.67
2023-02-19T19:02:42.688Z,4.64
2023-02-19T19:05:17.725Z,4.64
2023-02-19T19:07:45.120Z,4.62
2023-02-19T19:10:12.671Z,4.53
2023-02-19T19:12:40.147Z,4.55
2023-02-19T19:15:08.080Z,4.49
2023-02-19T19:17:35.532Z,4.44
2023-02-19T19:20:05.535Z,4.47
2023-02-19T19:22:34.219Z,4.42
2023-02-19T19:25:03.275Z,4.28
2023-02-19T19:27:30.654Z,4.27
2023-02-19T19:29:58.094Z,4.34
2023-02-19T19:32:25.522Z,4.34
2023-02-19T19:34:52.928Z,4.35
2023-02-19T19:37:20.376Z,4.43
2023-02-19T19:39:49.084Z,4.42
2023-02-19T19:42:16.778Z,4.55
2023-02-19T19:44:45.117Z,4.49
2023-02-19T19:47:12.520Z,4.35
2023-02-19T19:49:40.988Z,4.39
2023-02-19T19:52:08.856Z,4.38
2023-02-19T19:54:38.272Z,4.34
2023-02-19T19:57:07.103Z,4.32
2023-02-19T19:59:34.500Z,4.17
2023-02-19T20:02:03.127Z,4.09
2023-02-19T20:04:35.650Z,4.03
2023-02-19T20:07:07.926Z,4.11
2023-02-19T20:09:37.450Z,3.88
2023-02-19T20:12:05.377Z,3.86
2023-02-19T20:14:34.518Z,3.95
2023-02-19T20:17:02.699Z,4.01
2023-02-19T20:19:30.147Z,3.92
2023-02-19T20:21:57.566Z,3.86
2023-02-19T20:24:28.582Z,3.85
2023-02-19T20:26:58.429Z,4.08
2023-02-19T20:29:27.723Z,3.87
2023-02-19T20:31:59.043Z,3.73
2023-02-19T20:34:27.049Z,3.73
2023-02-19T20:36:54.656Z,3.51
2023-02-19T20:39:23.065Z,3.46
2023-02-19T20:41:52.263Z,3.58
2023-02-19T20:44:22.230Z,3.43
2023-02-19T20:46:51.062Z,3.33
2023-02-19T20:49:22.034Z,3.40
2023-02-19T20:51:51.879Z,3.39
2023-02-19T20:54:20.517Z,3.44
2023-02-19T20:56:50.110Z,3.29
2023-02-19T20:59:18.677Z,3.51
2023-02-19T21:01:46.149Z,3.42
2023-02-19T21:04:14.097Z,3.38
2023-02-19T21:06:42.718Z,3.38
2023-02-19T21:09:10.165Z,3.24
2023-02-19T21:11:37.839Z,3.05
2023-02-19T21:14:05.205Z,3.17
2023-02-19T21:16:33.929Z,3.40
2023-02-19T21:19:01.375Z,3.21
2023-02-19T21:21:31.116Z,3.17
2023-02-19T21:24:00.571Z,3.42
2023-02-19T21:26:34.572Z,3.27
2023-02-19T21:29:02.013Z,3.33
2023-02-19T21:31:37.232Z,3.42
2023-02-19T21:34:05.994Z,3.60
2023-02-19T21:36:33.424Z,3.47
2023-02-19T21:39:02.659Z,3.47
2023-02-19T21:41:30.101Z,3.59
2023-02-19T21:43:57.781Z,3.56
2023-02-19T22:00:58.174Z,3.65
2023-02-19T22:03:26.550Z,3.75
2023-02-19T22:05:54.616Z,3.66
2023-02-19T22:08:21.999Z,3.69
2023-02-19T22:10:49.424Z,3.44
2023-02-19T22:13:17.181Z,3.44
2023-02-19T22:15:44.642Z,3.46
2023-02-19T22:18:13.477Z,3.49
2023-02-19T22:20:41.369Z,3.32
2023-02-19T22:23:08.798Z,3.38
2023-02-19T22:25:36.186Z,3.46
2023-02-19T22:28:04.608Z,3.51
2023-02-19T22:30:32.038Z,3.35
2023-02-19T22:32:59.442Z,3.36
2023-02-19T22:35:28.159Z,3.37
2023-02-19T22:37:55.606Z,3.36
2023-02-19T22:40:23.210Z,3.40
2023-02-19T22:42:50.603Z,3.26
2023-02-19T22:45:18.070Z,3.33
2023-02-19T22:47:46.933Z,3.50
2023-02-19T22:50:18.470Z,3.57
2023-02-19T22:52:47.210Z,3.69
2023-02-19T22:55:14.714Z,3.71
2023-02-19T22:57:42.186Z,3.63
2023-02-19T23:00:11.436Z,3.75
2023-02-19T23:02:38.837Z,3.75
2023-02-19T23:05:06.775Z,3.80
2023-02-19T23:07:34.079Z,3.86
2023-02-19T23:10:02.798Z,4.01
2023-02-19T23:12:30.224Z,4.04
2023-02-19T23:14:57.611Z,4.21
2023-02-19T23:17:25.001Z,4.12
2023-02-19T23:19:52.398Z,4.11
2023-02-19T23:22:20.031Z,4.00
2023-02-19T23:24:47.459Z,4.01
2023-02-19T23:27:16.219Z,4.06
2023-02-19T23:29:43.579Z,4.18
2023-02-19T23:32:11.509Z,4.17
2023-02-19T23:34:38.936Z,4.18
2023-02-19T23:37:06.652Z,4.21
2023-02-19T23:39:34.054Z,4.04
2023-02-19T23:42:01.459Z,4.05
2023-02-19T23:44:30.524Z,4.16
2023-02-19T23:46:57.949Z,4.15
2023-02-19T23:49:25.352Z,4.04
2023-02-19T23:51:52.761Z,4.03
2023-02-19T23:54:20.167Z,4.18
2023-02-19T23:56:47.548Z,4.08
2023-02-19T23:59:15.485Z,4.21
